KJQF

Concord Regional Airport

Concord, North Carolina, USA
METAR KJQF 242350Z 00000KT 10SM CLR 26/20 A3015
Observed Flight Rules
May-24 @ 23:50 UTC (an hour ago) Visual Flight Rules
Visibility Clouds
10 miles
  • Clear skies
Temperatures Readings
Current 26°C / 79°F
Dewpoint 20°C / 68°F
Humidity 70%
Altimeter 30.15" Hg
Pressure 1021 hPa
Elevation 210
METAR KJQF 242350Z 00000KT 10SM CLR 26/20 A3015
Observed Flight Rules
May-24 @ 23:50 UTC
(an hour ago)
VFR
Clouds
  • Clear skies
Temperature Dewpoint
26°C / 79°F 20°C / 68°F
Humidity Altimeter Pressure
70% 30.15" Hg 1021 hPa